createdAt,value
2023-02-12T00:00:21.801Z,67.22
2023-02-12T00:03:00.673Z,67.73
2023-02-12T00:05:27.358Z,67.63
2023-02-12T00:07:54.362Z,67.62
2023-02-12T00:10:21.094Z,67.59
2023-02-12T00:12:47.703Z,67.67
2023-02-12T00:15:16.012Z,67.73
2023-02-12T00:17:42.627Z,67.68
2023-02-12T00:20:10.200Z,67.70
2023-02-12T00:22:36.761Z,67.51
2023-02-12T00:25:03.876Z,67.25
2023-02-12T00:27:32.882Z,67.26
2023-02-12T00:29:59.508Z,67.27
2023-02-12T00:32:30.144Z,67.14
2023-02-12T00:34:56.781Z,67.26
2023-02-12T00:37:23.417Z,67.41
2023-02-12T00:39:50.271Z,67.35
2023-02-12T00:42:16.897Z,67.34
2023-02-12T00:44:43.694Z,67.44
2023-02-12T00:47:10.681Z,67.52
2023-02-12T00:49:38.651Z,67.29
2023-02-12T00:52:05.606Z,67.33
2023-02-12T00:54:32.483Z,67.12
2023-02-12T00:57:02.343Z,67.07
2023-02-12T00:59:29.169Z,67.10
2023-02-12T01:01:55.916Z,67.01
2023-02-12T01:04:22.818Z,66.69
2023-02-12T01:06:51.070Z,66.37
2023-02-12T01:09:17.677Z,66.63
2023-02-12T01:11:44.233Z,66.76
2023-02-12T01:14:10.826Z,67.00
2023-02-12T01:16:37.883Z,66.90
2023-02-12T01:19:05.195Z,67.20
2023-02-12T01:21:34.125Z,67.66
2023-02-12T01:24:02.248Z,67.35
2023-02-12T01:26:30.075Z,67.64
2023-02-12T01:28:58.905Z,67.51
2023-02-12T01:31:28.174Z,67.33
2023-02-12T01:33:57.188Z,67.56
2023-02-12T01:36:24.722Z,67.63
2023-02-12T01:38:52.007Z,67.93
2023-02-12T01:41:22.616Z,67.85
2023-02-12T01:44:05.758Z,67.79
2023-02-12T01:46:32.657Z,67.60
2023-02-12T01:49:00.562Z,67.80
2023-02-12T01:51:29.203Z,67.59
2023-02-12T01:54:00.548Z,67.78
2023-02-12T01:56:29.609Z,67.52
2023-02-12T01:58:56.547Z,67.53
2023-02-12T02:01:26.373Z,67.54
2023-02-12T02:03:57.298Z,67.41
2023-02-12T02:06:28.713Z,67.50
2023-02-12T02:08:56.807Z,67.20
2023-02-12T02:11:23.486Z,67.35
2023-02-12T02:13:51.795Z,67.00
2023-02-12T02:16:24.365Z,67.25
2023-02-12T02:18:56.588Z,67.50
2023-02-12T02:21:51.426Z,67.46
2023-02-12T02:24:57.333Z,67.27
2023-02-12T02:27:30.833Z,67.13
2023-02-12T02:30:33.017Z,67.36
2023-02-12T02:33:13.212Z,67.21
2023-02-12T02:35:46.814Z,67.11
2023-02-12T02:38:26.874Z,66.99
2023-02-12T02:41:00.896Z,67.17
2023-02-12T02:43:31.556Z,67.19
2023-02-12T02:46:05.505Z,67.43
2023-02-12T02:48:37.719Z,67.40
2023-02-12T02:51:09.693Z,67.42
2023-02-12T02:53:42.265Z,67.67
2023-02-12T02:56:14.004Z,67.70
2023-02-12T02:58:44.223Z,67.61
2023-02-12T03:01:15.621Z,67.69
2023-02-12T03:03:50.968Z,67.56
2023-02-12T03:06:24.162Z,67.63
2023-02-12T03:08:55.129Z,67.81
2023-02-12T03:11:25.443Z,67.77
2023-02-12T03:14:00.717Z,67.70
2023-02-12T03:16:31.022Z,67.38
2023-02-12T03:19:06.686Z,67.33
2023-02-12T03:21:37.495Z,67.61
2023-02-12T03:24:11.814Z,67.62
2023-02-12T03:26:43.519Z,67.91
2023-02-12T03:29:10.364Z,67.91
2023-02-12T03:31:46.955Z,68.16
2023-02-12T03:34:24.626Z,68.00
2023-02-12T03:36:57.304Z,67.82
2023-02-12T03:39:29.899Z,68.17
2023-02-12T03:42:02.238Z,67.74
2023-02-12T03:44:41.975Z,67.81
2023-02-12T03:47:17.625Z,67.79
2023-02-12T03:49:54.382Z,67.94
2023-02-12T03:52:21.293Z,67.73
2023-02-12T03:54:48.099Z,67.54
2023-02-12T03:57:20.056Z,67.84
2023-02-12T03:59:47.040Z,67.33
2023-02-12T04:02:16.069Z,67.68
2023-02-12T04:04:46.755Z,67.33
2023-02-12T04:07:13.893Z,67.30
2023-02-12T04:09:40.810Z,67.63
2023-02-12T04:12:22.879Z,67.51
2023-02-12T04:14:55.120Z,67.61
2023-02-12T04:17:30.059Z,67.92
2023-02-12T04:20:07.910Z,67.88
2023-02-12T04:22:45.419Z,68.42
2023-02-12T04:25:21.926Z,68.41
2023-02-12T04:27:56.395Z,68.64
2023-02-12T04:30:29.241Z,68.41
2023-02-12T04:33:03.750Z,68.35
2023-02-12T04:35:35.827Z,68.27
2023-02-12T04:38:10.183Z,68.23
2023-02-12T04:40:39.158Z,68.25
2023-02-12T04:43:05.843Z,68.23
2023-02-12T04:45:35.163Z,68.38
2023-02-12T04:48:02.184Z,68.34
2023-02-12T04:50:40.076Z,68.37
2023-02-12T04:53:06.811Z,68.34
2023-02-12T04:55:33.388Z,68.33
2023-02-12T04:58:00.215Z,68.55
2023-02-12T05:00:26.801Z,68.39
2023-02-12T05:02:53.422Z,68.38
2023-02-12T05:05:20.194Z,68.44
2023-02-12T05:07:48.504Z,68.62
2023-02-12T05:10:15.296Z,68.43
2023-02-12T05:12:42.060Z,68.68
2023-02-12T05:15:09.373Z,67.98
2023-02-12T05:17:35.937Z,68.01
2023-02-12T05:20:02.741Z,68.24
2023-02-12T05:22:29.310Z,68.62
2023-02-12T05:24:57.231Z,68.51
2023-02-12T05:27:23.795Z,68.58
2023-02-12T05:29:50.435Z,68.38
2023-02-12T05:32:17.246Z,68.31
2023-02-12T05:34:43.828Z,68.25
2023-02-12T05:37:10.272Z,68.22
2023-02-12T05:39:37.157Z,68.74
2023-02-12T05:42:05.220Z,68.48
2023-02-12T05:44:31.857Z,68.41
2023-02-12T05:46:58.695Z,68.51
2023-02-12T05:49:25.290Z,68.24
2023-02-12T05:51:51.923Z,68.32
2023-02-12T05:54:18.539Z,68.26
2023-02-12T05:56:47.056Z,68.19
2023-02-12T05:59:17.216Z,68.42
2023-02-12T06:01:45.555Z,68.49
2023-02-12T06:04:15.661Z,68.45
2023-02-12T06:06:42.843Z,68.69
2023-02-12T06:09:10.327Z,68.91
2023-02-12T06:11:37.401Z,68.40
2023-02-12T06:14:04.293Z,68.21
2023-02-12T06:16:33.674Z,68.54
2023-02-12T06:19:02.258Z,68.49
2023-02-12T06:21:29.603Z,68.33
2023-02-12T06:23:56.261Z,68.53
2023-02-12T06:26:23.688Z,68.63
2023-02-12T06:28:50.592Z,68.50
2023-02-12T06:31:19.645Z,68.26
2023-02-12T06:33:49.227Z,68.54
2023-02-12T06:36:16.326Z,68.56
2023-02-12T06:38:43.303Z,68.68
2023-02-12T06:41:10.320Z,68.67
2023-02-12T06:43:37.319Z,68.36
2023-02-12T06:46:05.250Z,68.11
2023-02-12T06:48:32.276Z,68.10
2023-02-12T06:51:06.239Z,68.02
2023-02-12T06:53:33.789Z,68.01
2023-02-12T06:56:01.187Z,67.82
2023-02-12T06:58:27.796Z,67.79
2023-02-12T07:00:54.369Z,67.67
2023-02-12T07:03:21.003Z,67.63
2023-02-12T07:05:47.706Z,68.17
2023-02-12T07:08:15.628Z,68.11
2023-02-12T07:10:42.215Z,68.01
2023-02-12T07:13:08.913Z,68.07
2023-02-12T07:15:39.094Z,67.87
2023-02-12T07:18:05.801Z,67.79
2023-02-12T07:20:32.393Z,67.70
2023-02-12T07:22:58.965Z,67.55
2023-02-12T07:25:26.961Z,67.41
2023-02-12T07:27:53.683Z,67.00
2023-02-12T07:30:20.376Z,67.12
2023-02-12T07:32:46.960Z,67.07
2023-02-12T07:35:13.558Z,67.01
2023-02-12T07:37:40.137Z,66.79
2023-02-12T07:40:08.432Z,66.78
2023-02-12T07:42:37.051Z,66.76
2023-02-12T07:45:03.783Z,66.68
2023-02-12T07:47:30.585Z,66.62
2023-02-12T07:49:57.286Z,66.28
2023-02-12T07:52:23.871Z,66.25
2023-02-12T07:54:50.424Z,65.80
2023-02-12T07:57:17.006Z,65.70
2023-02-12T07:59:44.880Z,65.44
2023-02-12T08:02:11.706Z,65.44
2023-02-12T08:04:38.374Z,65.39
2023-02-12T08:07:04.882Z,65.34
2023-02-12T08:09:31.451Z,65.25
2023-02-12T08:11:58.076Z,65.07
2023-02-12T08:14:24.835Z,64.65
2023-02-12T08:16:53.379Z,64.69
2023-02-12T08:19:24.063Z,64.32
2023-02-12T08:21:53.913Z,63.99
2023-02-12T08:24:20.839Z,63.51
2023-02-12T08:26:47.880Z,63.05
2023-02-12T08:29:17.145Z,62.80
2023-02-12T08:31:45.098Z,62.69
2023-02-12T08:34:18.370Z,62.45
2023-02-12T08:36:45.770Z,62.39
2023-02-12T08:39:13.230Z,62.20
2023-02-12T08:41:40.318Z,63.11
2023-02-12T08:44:06.851Z,62.29
2023-02-12T08:46:35.742Z,62.49
2023-02-12T08:49:05.796Z,62.48
2023-02-12T08:51:35.047Z,62.40
2023-02-12T08:54:05.090Z,61.83
2023-02-12T08:56:33.719Z,62.03
2023-02-12T08:59:02.366Z,61.39
2023-02-12T09:01:31.821Z,60.99
2023-02-12T09:03:59.152Z,60.22
2023-02-12T09:06:26.520Z,59.65
2023-02-12T09:08:55.345Z,59.77
2023-02-12T09:11:25.687Z,59.66
2023-02-12T09:13:53.030Z,59.47
2023-02-12T09:16:19.664Z,58.36
2023-02-12T09:18:46.284Z,58.37
2023-02-12T09:21:15.128Z,57.72
2023-02-12T09:23:44.803Z,57.54
2023-02-12T09:26:15.146Z,57.26
2023-02-12T09:28:42.546Z,56.97
2023-02-12T09:31:11.356Z,57.02
2023-02-12T09:33:38.553Z,56.99
2023-02-12T09:36:07.036Z,57.09
2023-02-12T09:38:34.214Z,56.68
2023-02-12T09:41:31.177Z,55.75
2023-02-12T09:44:02.982Z,55.21
2023-02-12T09:46:31.926Z,54.28
2023-02-12T09:49:08.152Z,54.04
2023-02-12T09:51:35.353Z,53.55
2023-02-12T09:54:06.158Z,53.43
2023-02-12T09:56:39.115Z,53.08
2023-02-12T09:59:09.082Z,52.66
2023-02-12T10:01:35.911Z,53.37
2023-02-12T10:04:11.426Z,52.74
2023-02-12T10:06:48.437Z,52.37
2023-02-12T10:09:26.690Z,53.01
2023-02-12T10:12:03.962Z,52.72
2023-02-12T10:14:49.493Z,51.81
2023-02-12T10:17:24.206Z,51.85
2023-02-12T10:20:09.053Z,51.76
2023-02-12T10:22:56.036Z,49.88
2023-02-12T10:25:32.161Z,51.04
2023-02-12T10:28:05.356Z,50.40
2023-02-12T10:30:40.825Z,50.74
2023-02-12T10:33:15.268Z,50.56
2023-02-12T10:35:46.911Z,52.00
2023-02-12T10:38:17.520Z,51.88
2023-02-12T10:40:45.852Z,52.00
2023-02-12T10:43:14.170Z,51.78
2023-02-12T10:45:42.946Z,51.40
2023-02-12T10:48:13.454Z,51.25
2023-02-12T10:50:52.034Z,52.53
2023-02-12T10:53:23.870Z,51.34
2023-02-12T10:56:04.300Z,50.32
2023-02-12T10:58:32.352Z,49.68
2023-02-12T11:01:00.776Z,50.11
2023-02-12T11:03:32.641Z,49.49
2023-02-12T11:06:11.890Z,49.49
2023-02-12T11:08:38.467Z,49.79
2023-02-12T11:11:09.948Z,49.36
2023-02-12T11:13:40.425Z,49.50
2023-02-12T11:16:08.504Z,49.15
2023-02-12T11:18:36.267Z,49.09
2023-02-12T11:21:06.085Z,48.89
2023-02-12T11:23:34.741Z,47.96
2023-02-12T11:26:04.740Z,48.11
2023-02-12T11:28:36.177Z,47.48
2023-02-12T11:31:21.600Z,47.07
2023-02-12T11:34:07.055Z,48.10
2023-02-12T11:36:36.484Z,48.05
2023-02-12T11:39:19.110Z,46.95
2023-02-12T11:41:51.635Z,46.89
2023-02-12T11:44:21.026Z,47.13
2023-02-12T11:47:09.744Z,47.62
2023-02-12T11:49:41.760Z,47.61
2023-02-12T11:52:21.456Z,47.84
2023-02-12T11:54:50.049Z,48.77
2023-02-12T11:57:35.962Z,48.55
2023-02-12T12:00:05.450Z,48.36
2023-02-12T12:02:37.573Z,47.75
2023-02-12T12:05:13.569Z,48.58
2023-02-12T12:07:45.129Z,49.54
2023-02-12T12:10:18.474Z,49.51
2023-02-12T12:12:51.007Z,50.28
2023-02-12T12:15:22.272Z,49.15
2023-02-12T12:17:56.427Z,48.81
2023-02-12T12:20:27.232Z,47.81
2023-02-12T12:23:00.950Z,48.69
2023-02-12T12:25:30.919Z,49.07
2023-02-12T12:28:05.516Z,47.72
2023-02-12T12:30:51.441Z,47.29
2023-02-12T12:33:26.397Z,48.78
2023-02-12T12:36:05.282Z,48.60
2023-02-12T12:38:44.061Z,48.89
2023-02-12T12:41:22.994Z,48.73
2023-02-12T12:44:05.789Z,48.61
2023-02-12T12:46:55.167Z,48.25
2023-02-12T12:49:37.430Z,48.89
2023-02-12T12:52:18.578Z,49.20
2023-02-12T12:54:58.578Z,50.32
2023-02-12T12:57:42.587Z,49.64
2023-02-12T13:00:27.536Z,49.61
2023-02-12T13:03:32.302Z,49.95
2023-02-12T13:06:31.737Z,50.60
2023-02-12T13:09:19.601Z,51.25
2023-02-12T13:11:57.075Z,52.73
2023-02-12T13:14:43.980Z,51.62
2023-02-12T13:17:20.374Z,51.02
2023-02-12T13:24:02.977Z,53.39
2023-02-12T13:26:41.377Z,52.00
2023-02-12T13:30:01.417Z,52.81
2023-02-12T13:32:30.127Z,52.62
2023-02-12T13:34:59.048Z,53.30
2023-02-12T13:37:45.450Z,53.33
2023-02-12T13:40:52.592Z,53.54
2023-02-12T13:43:36.404Z,52.18
2023-02-12T13:46:55.757Z,52.33
2023-02-12T13:50:06.158Z,51.28
2023-02-12T13:52:59.696Z,51.69
2023-02-12T13:55:33.173Z,51.69
2023-02-12T13:58:48.657Z,52.05
2023-02-12T14:01:50.847Z,51.36
2023-02-12T14:04:33.766Z,51.06
2023-02-12T14:07:04.061Z,52.14
2023-02-12T14:09:37.911Z,52.02
2023-02-12T14:12:07.306Z,51.70
2023-02-12T14:14:36.690Z,52.53
2023-02-12T14:17:45.272Z,52.38
2023-02-12T14:20:28.848Z,53.12
2023-02-12T14:23:27.778Z,53.93
2023-02-12T14:26:13.330Z,54.23
2023-02-12T14:28:50.251Z,53.66
2023-02-12T14:31:41.169Z,54.24
2023-02-12T14:34:47.472Z,53.60
2023-02-12T14:37:38.148Z,54.70
2023-02-12T14:40:30.910Z,55.23
2023-02-12T14:42:57.577Z,55.63
2023-02-12T14:45:32.495Z,55.32
2023-02-12T14:47:59.929Z,54.96
2023-02-12T14:50:35.998Z,54.94
2023-02-12T14:53:21.357Z,55.05
2023-02-12T14:55:48.318Z,55.13
2023-02-12T14:58:21.350Z,55.07
2023-02-12T15:00:50.745Z,56.00
2023-02-12T15:03:27.162Z,56.14
2023-02-12T15:06:01.221Z,56.04
2023-02-12T15:08:36.402Z,56.06
2023-02-12T15:11:14.365Z,56.29
2023-02-12T15:13:49.865Z,55.85
2023-02-12T15:16:27.196Z,57.33
2023-02-12T15:19:01.925Z,56.76
2023-02-12T15:21:31.164Z,57.40
2023-02-12T15:24:02.647Z,56.98
2023-02-12T15:26:31.941Z,56.73
2023-02-12T15:28:59.027Z,57.13
2023-02-12T15:31:27.906Z,56.48
2023-02-12T15:33:57.000Z,57.06
2023-02-12T15:36:26.096Z,57.17
2023-02-12T15:38:56.037Z,56.81
2023-02-12T15:41:36.591Z,57.31
2023-02-12T15:44:17.425Z,57.05
2023-02-12T15:46:56.160Z,57.11
2023-02-12T15:49:27.556Z,57.53
2023-02-12T15:51:54.613Z,57.71
2023-02-12T15:54:21.514Z,58.28
2023-02-12T15:56:49.686Z,58.50
2023-02-12T15:59:20.912Z,57.74
2023-02-12T16:01:53.668Z,58.85
2023-02-12T16:04:20.413Z,58.74
2023-02-12T16:06:47.200Z,59.30
2023-02-12T16:09:18.642Z,59.19
2023-02-12T16:11:48.832Z,58.45
2023-02-12T16:14:22.090Z,58.60
2023-02-12T16:16:51.719Z,59.16
2023-02-12T16:19:20.936Z,59.29
2023-02-12T16:21:50.294Z,59.27
2023-02-12T16:24:26.257Z,60.20
2023-02-12T16:26:55.248Z,59.82
2023-02-12T16:29:22.083Z,59.21
2023-02-12T16:31:57.406Z,59.91
2023-02-12T16:34:29.126Z,59.38
2023-02-12T16:36:55.976Z,59.62
2023-02-12T16:40:09.435Z,59.95
2023-02-12T16:42:37.914Z,59.74
2023-02-12T16:45:40.347Z,59.60
2023-02-12T16:48:14.931Z,59.37
2023-02-12T16:50:46.697Z,59.39
2023-02-12T16:53:37.200Z,59.45
2023-02-12T16:56:05.390Z,59.66
2023-02-12T16:58:33.366Z,59.52
2023-02-12T17:01:04.273Z,59.99
2023-02-12T17:03:31.417Z,60.19
2023-02-12T17:05:58.632Z,60.07
2023-02-12T17:08:25.469Z,59.72
2023-02-12T17:10:53.137Z,60.16
2023-02-12T17:13:19.887Z,60.59
2023-02-12T17:15:53.999Z,60.38
2023-02-12T17:18:21.124Z,60.44
2023-02-12T17:20:51.841Z,60.57
2023-02-12T17:23:18.612Z,60.71
2023-02-12T17:25:50.338Z,61.24
2023-02-12T17:28:17.135Z,61.67
2023-02-12T17:30:45.970Z,61.08
2023-02-12T17:43:31.276Z,61.07
2023-02-12T17:46:30.105Z,61.03
2023-02-12T19:09:19.762Z,62.75
2023-02-12T19:11:48.667Z,62.47
2023-02-12T19:14:16.671Z,62.65
2023-02-12T19:16:43.516Z,63.06
2023-02-12T19:19:10.322Z,62.45
2023-02-12T19:21:59.061Z,63.08
2023-02-12T19:24:46.200Z,62.98
2023-02-12T19:27:13.648Z,62.35
2023-02-12T19:29:40.265Z,62.31
2023-02-12T19:32:40.200Z,62.08
2023-02-12T19:35:12.608Z,62.46
2023-02-12T19:41:12.607Z,64.15
2023-02-12T19:43:39.602Z,63.90
2023-02-12T19:46:25.928Z,63.59
2023-02-12T19:48:56.092Z,63.34
2023-02-12T19:51:25.919Z,62.54
2023-02-12T19:55:06.495Z,62.36
2023-02-12T20:01:49.382Z,62.92
2023-02-12T20:04:52.877Z,63.87
2023-02-12T20:10:57.131Z,63.76
2023-02-12T20:13:24.005Z,64.40
2023-02-12T20:15:50.841Z,64.67
2023-02-12T20:18:19.516Z,63.77
2023-02-12T20:20:46.113Z,64.51
2023-02-12T20:23:12.689Z,63.76
2023-02-12T20:25:42.897Z,63.62
2023-02-12T20:28:09.803Z,63.85
2023-02-12T20:30:39.342Z,63.90
2023-02-12T20:33:06.077Z,63.95
2023-02-12T20:35:34.157Z,64.11
2023-02-12T20:38:00.775Z,63.70
2023-02-12T20:40:27.367Z,63.71
2023-02-12T20:42:54.009Z,64.02
2023-02-12T20:45:20.589Z,64.22
2023-02-12T20:47:47.215Z,64.15
2023-02-12T20:50:13.951Z,64.67
2023-02-12T20:52:42.080Z,64.14
2023-02-12T20:55:09.120Z,64.31
2023-02-12T20:57:37.393Z,64.89
2023-02-12T21:00:04.675Z,65.11
2023-02-12T21:02:32.567Z,64.91
2023-02-12T21:04:59.213Z,64.19
2023-02-12T21:07:26.076Z,63.75
2023-02-12T21:56:15.922Z,63.31
2023-02-12T21:58:43.130Z,62.93
2023-02-12T22:01:12.131Z,63.12
2023-02-12T22:03:38.826Z,62.78
2023-02-12T22:06:07.688Z,62.71
2023-02-12T22:08:37.137Z,63.81
2023-02-12T22:11:04.350Z,62.82
2023-02-12T22:13:32.461Z,62.49
2023-02-12T22:16:08.866Z,62.60
2023-02-12T22:18:35.566Z,62.43
2023-02-12T22:21:03.111Z,62.16
2023-02-12T22:23:29.817Z,62.28
2023-02-12T22:26:04.366Z,62.32
2023-02-12T22:28:32.917Z,62.31
2023-02-12T22:30:59.910Z,62.21
2023-02-12T22:33:27.078Z,62.24
2023-02-12T22:35:53.618Z,61.76
2023-02-12T22:38:20.211Z,61.65
2023-02-12T22:40:46.832Z,61.67
2023-02-12T22:43:13.408Z,61.56
2023-02-12T22:45:44.642Z,61.63
2023-02-12T22:48:11.219Z,61.34
2023-02-12T22:50:38.750Z,61.32
2023-02-12T22:53:05.995Z,61.27
2023-02-12T22:55:35.290Z,61.18
2023-02-12T22:58:01.883Z,61.20
2023-02-12T23:00:28.492Z,61.01
2023-02-12T23:02:56.542Z,61.12
2023-02-12T23:05:23.123Z,60.87
2023-02-12T23:07:49.711Z,60.48
2023-02-12T23:10:16.561Z,61.25
2023-02-12T23:12:43.185Z,60.93
2023-02-12T23:15:10.586Z,60.77
2023-02-12T23:17:37.213Z,61.29
2023-02-12T23:20:06.122Z,61.01
2023-02-12T23:22:32.737Z,60.91
2023-02-12T23:24:59.454Z,61.30
2023-02-12T23:27:26.156Z,61.07
2023-02-12T23:29:52.697Z,61.01
2023-02-12T23:32:19.312Z,60.91
2023-02-12T23:34:45.917Z,60.86
2023-02-12T23:37:13.901Z,60.82
2023-02-12T23:39:40.477Z,60.67
2023-02-12T23:42:07.540Z,60.93
2023-02-12T23:44:34.152Z,61.25
2023-02-12T23:47:00.715Z,61.10
2023-02-12T23:49:27.415Z,60.92
2023-02-12T23:51:54.042Z,60.76
2023-02-12T23:54:22.020Z,60.75
2023-02-12T23:56:48.553Z,60.61
2023-02-12T23:59:15.160Z,60.70
